createdAt,value
2019-05-12T00:00:14.097Z,6.53
2019-05-12T00:01:14.093Z,6.49
2019-05-12T00:02:14.096Z,6.51
2019-05-12T00:03:14.095Z,6.48
2019-05-12T00:04:14.093Z,6.41
2019-05-12T00:05:14.096Z,6.32
2019-05-12T00:06:14.094Z,6.24
2019-05-12T00:07:14.101Z,6.19
2019-05-12T00:08:14.089Z,6.20
2019-05-12T00:09:14.092Z,6.20
2019-05-12T00:10:14.089Z,6.20
2019-05-12T00:11:14.091Z,6.13
2019-05-12T00:12:14.096Z,6.09
2019-05-12T00:13:14.090Z,6.04
2019-05-12T00:14:14.089Z,6.05
2019-05-12T00:15:14.089Z,5.99
2019-05-12T00:16:14.085Z,5.94
2019-05-12T00:17:14.089Z,5.94
2019-05-12T00:18:14.090Z,5.92
2019-05-12T00:19:14.087Z,5.90
2019-05-12T00:20:14.082Z,5.86
2019-05-12T00:21:14.083Z,5.85
2019-05-12T00:22:14.094Z,5.80
2019-05-12T00:23:24.986Z,5.77
2019-05-12T00:24:14.087Z,5.73
2019-05-12T00:25:14.114Z,5.67
2019-05-12T00:26:14.079Z,5.68
2019-05-12T00:27:14.089Z,5.74
2019-05-12T00:28:14.078Z,5.81
2019-05-12T00:29:14.078Z,5.84
2019-05-12T00:30:14.077Z,5.80
2019-05-12T00:31:14.079Z,5.78
2019-05-12T00:32:14.085Z,5.76
2019-05-12T00:33:14.083Z,5.77
2019-05-12T00:34:14.076Z,5.78
2019-05-12T00:35:14.077Z,5.79
2019-05-12T00:36:14.072Z,5.81
2019-05-12T00:37:14.083Z,5.76
2019-05-12T00:38:14.076Z,5.75
2019-05-12T00:39:14.081Z,5.75
2019-05-12T00:40:14.071Z,5.72
2019-05-12T00:41:14.074Z,5.72
2019-05-12T00:42:14.079Z,5.66
2019-05-12T00:43:14.076Z,5.65
2019-05-12T00:44:14.072Z,5.65
2019-05-12T00:45:14.071Z,5.66
2019-05-12T00:46:14.071Z,5.65
2019-05-12T00:47:14.072Z,5.61
2019-05-12T00:48:14.068Z,5.59
2019-05-12T00:49:14.064Z,5.59
2019-05-12T00:50:14.065Z,5.55
2019-05-12T00:51:14.068Z,5.55
2019-05-12T00:52:14.081Z,5.54
2019-05-12T00:53:14.064Z,5.53
2019-05-12T00:54:14.064Z,5.54
2019-05-12T00:55:14.063Z,5.50
2019-05-12T00:56:14.062Z,5.41
2019-05-12T00:57:14.061Z,5.38
2019-05-12T00:58:14.066Z,5.38
2019-05-12T00:59:14.065Z,5.35
2019-05-12T01:00:14.059Z,5.30
2019-05-12T01:01:14.068Z,5.29
2019-05-12T01:02:14.060Z,5.26
2019-05-12T01:03:14.068Z,5.24
2019-05-12T01:04:14.060Z,5.24
2019-05-12T01:05:14.058Z,5.24
2019-05-12T01:06:14.056Z,5.24
2019-05-12T01:07:14.057Z,5.22
2019-05-12T01:08:14.059Z,5.17
2019-05-12T01:09:14.056Z,5.15
2019-05-12T01:10:14.055Z,5.14
2019-05-12T01:11:14.055Z,5.14
2019-05-12T01:12:14.050Z,5.13
2019-05-12T01:13:14.061Z,5.14
2019-05-12T01:14:14.051Z,5.16
2019-05-12T01:15:14.053Z,5.15
2019-05-12T01:16:14.048Z,5.15
2019-05-12T01:17:14.050Z,5.16
2019-05-12T01:18:14.055Z,5.25
2019-05-12T01:19:14.050Z,5.31
2019-05-12T01:20:14.049Z,5.38
2019-05-12T01:21:14.066Z,5.40
2019-05-12T01:22:14.048Z,5.40
2019-05-12T01:23:14.056Z,5.38
2019-05-12T01:24:14.047Z,5.34
2019-05-12T01:25:14.051Z,5.33
2019-05-12T01:26:14.050Z,5.34
2019-05-12T01:27:14.047Z,5.36
2019-05-12T01:28:14.053Z,5.34
2019-05-12T01:29:14.043Z,5.30
2019-05-12T01:30:14.042Z,5.31
2019-05-12T01:31:14.045Z,5.31
2019-05-12T01:32:14.042Z,5.28
2019-05-12T01:33:14.051Z,5.27
2019-05-12T01:34:14.041Z,5.22
2019-05-12T01:35:14.042Z,5.22
2019-05-12T01:36:14.040Z,5.24
2019-05-12T01:37:14.038Z,5.25
2019-05-12T01:38:14.049Z,5.25
2019-05-12T01:39:14.043Z,5.29
2019-05-12T01:40:14.034Z,5.29
2019-05-12T01:41:14.035Z,5.23
2019-05-12T01:42:14.038Z,5.22
2019-05-12T01:43:14.033Z,5.20
2019-05-12T01:44:14.037Z,5.20
2019-05-12T01:45:14.035Z,5.14
2019-05-12T01:46:14.033Z,5.11
2019-05-12T01:47:14.032Z,5.08
2019-05-12T01:48:14.035Z,5.06
2019-05-12T01:49:14.033Z,5.05
2019-05-12T01:50:14.031Z,5.04
2019-05-12T01:51:14.031Z,5.01
2019-05-12T01:52:14.029Z,5.02
2019-05-12T01:53:14.029Z,5.04
2019-05-12T01:54:15.183Z,5.05
2019-05-12T01:55:14.024Z,5.01
2019-05-12T01:56:14.025Z,5.01
2019-05-12T01:57:14.026Z,5.04
2019-05-12T01:58:14.026Z,5.04
2019-05-12T01:59:14.041Z,5.04
2019-05-12T02:00:14.024Z,5.08
2019-05-12T02:01:14.025Z,5.11
2019-05-12T02:02:14.024Z,5.12
2019-05-12T02:03:14.025Z,5.08
2019-05-12T02:04:14.031Z,5.01
2019-05-12T02:05:14.029Z,4.98
2019-05-12T02:06:14.030Z,4.98
2019-05-12T02:07:14.022Z,5.01
2019-05-12T02:08:14.021Z,4.99
2019-05-12T02:09:14.020Z,5.02
2019-05-12T02:10:14.016Z,5.04
2019-05-12T02:11:14.023Z,5.05
2019-05-12T02:12:14.017Z,5.07
2019-05-12T02:13:14.021Z,5.03
2019-05-12T02:14:14.029Z,4.96
2019-05-12T02:15:14.016Z,4.89
2019-05-12T02:16:14.015Z,4.82
2019-05-12T02:17:14.015Z,4.78
2019-05-12T02:18:14.016Z,4.73
2019-05-12T02:19:14.025Z,4.74
2019-05-12T02:20:14.023Z,4.80
2019-05-12T02:21:14.012Z,4.89
2019-05-12T02:22:14.013Z,4.92
2019-05-12T02:23:14.011Z,4.84
2019-05-12T02:24:26.393Z,4.76
2019-05-12T02:25:14.010Z,4.71
2019-05-12T02:26:14.009Z,4.67
2019-05-12T02:27:14.009Z,4.69
2019-05-12T02:28:14.009Z,4.65
2019-05-12T02:29:14.025Z,4.58
2019-05-12T02:30:14.008Z,4.53
2019-05-12T02:31:14.018Z,4.53
2019-05-12T02:32:14.028Z,4.55
2019-05-12T02:33:15.988Z,4.50
2019-05-12T02:34:15.718Z,4.46
2019-05-12T02:35:16.184Z,4.50
2019-05-12T02:36:15.045Z,4.49
2019-05-12T02:37:15.329Z,4.50
2019-05-12T02:38:14.596Z,4.50
2019-05-12T02:39:15.003Z,4.50
2019-05-12T02:40:15.105Z,4.49
2019-05-12T02:41:15.442Z,4.44
2019-05-12T02:42:15.598Z,4.38
2019-05-12T02:43:15.419Z,4.32
2019-05-12T02:44:14.977Z,4.25
2019-05-12T02:45:15.423Z,4.23
2019-05-12T02:46:15.644Z,4.21
2019-05-12T02:47:16.110Z,4.22
2019-05-12T02:48:14.610Z,4.25
2019-05-12T02:49:15.602Z,4.25
2019-05-12T02:50:14.630Z,4.18
2019-05-12T02:51:15.610Z,4.21
2019-05-12T02:52:15.404Z,4.22
2019-05-12T02:53:14.718Z,4.22
2019-05-12T02:54:14.420Z,4.26
2019-05-12T02:55:14.939Z,4.27
2019-05-12T02:56:15.146Z,4.25
2019-05-12T02:57:14.393Z,4.18
2019-05-12T02:58:15.145Z,4.11
2019-05-12T02:59:16.211Z,4.13
2019-05-12T03:00:16.023Z,4.17
2019-05-12T03:01:15.260Z,4.18
2019-05-12T03:02:14.319Z,4.24
2019-05-12T03:03:14.588Z,4.25
2019-05-12T03:04:14.684Z,4.21
2019-05-12T03:05:14.889Z,4.14
2019-05-12T03:06:15.133Z,4.12
2019-05-12T03:07:15.378Z,4.17
2019-05-12T03:08:15.385Z,4.20
2019-05-12T03:09:15.156Z,4.19
2019-05-12T03:10:14.726Z,4.18
2019-05-12T03:11:14.825Z,4.16
2019-05-12T03:12:14.492Z,4.12
2019-05-12T03:13:14.905Z,4.06
2019-05-12T03:14:15.722Z,4.10
2019-05-12T03:15:15.213Z,4.15
2019-05-12T03:16:14.931Z,4.18
2019-05-12T03:17:15.321Z,4.18
2019-05-12T03:18:14.674Z,4.20
2019-05-12T03:19:14.930Z,4.26
2019-05-12T03:20:15.416Z,4.22
2019-05-12T03:21:15.260Z,4.21
2019-05-12T03:22:14.338Z,4.25
2019-05-12T03:23:15.456Z,4.28
2019-05-12T03:24:17.405Z,4.29
2019-05-12T03:25:20.983Z,4.26
2019-05-12T03:26:15.436Z,4.23
2019-05-12T03:27:17.424Z,4.22
2019-05-12T03:28:15.932Z,4.17
2019-05-12T03:29:14.754Z,4.15
2019-05-12T03:30:19.282Z,4.12
2019-05-12T03:31:18.254Z,4.07
2019-05-12T03:32:17.731Z,4.05
2019-05-12T03:33:19.587Z,4.05
2019-05-12T03:34:19.837Z,4.01
2019-05-12T03:35:17.601Z,4.09
2019-05-12T03:36:18.016Z,4.18
2019-05-12T03:37:17.583Z,4.18
2019-05-12T03:38:14.986Z,4.17
2019-05-12T03:39:14.963Z,4.20
2019-05-12T03:40:14.592Z,4.21
2019-05-12T03:41:14.880Z,4.19
2019-05-12T03:42:14.584Z,4.23
2019-05-12T03:43:14.685Z,4.25
2019-05-12T03:44:15.036Z,4.20
2019-05-12T03:45:15.022Z,4.14
2019-05-12T03:46:15.167Z,4.14
2019-05-12T03:47:14.545Z,4.09
2019-05-12T03:48:15.047Z,4.08
2019-05-12T03:49:15.412Z,4.05
2019-05-12T03:50:14.941Z,4.01
2019-05-12T03:51:15.507Z,3.94
2019-05-12T03:52:15.228Z,3.85
2019-05-12T03:53:15.736Z,3.80
2019-05-12T03:54:15.259Z,3.77
2019-05-12T03:55:30.769Z,3.77
2019-05-12T03:56:15.032Z,3.73
2019-05-12T03:57:15.028Z,3.73
2019-05-12T03:58:15.263Z,3.74
2019-05-12T03:59:14.929Z,3.75
2019-05-12T04:00:15.809Z,3.69
2019-05-12T04:01:15.032Z,3.61
2019-05-12T04:02:15.023Z,3.59
2019-05-12T04:03:15.329Z,3.69
2019-05-12T04:04:15.149Z,3.74
2019-05-12T04:05:15.484Z,3.73
2019-05-12T04:06:15.481Z,3.68
2019-05-12T04:07:15.329Z,3.64
2019-05-12T04:08:15.691Z,3.68
2019-05-12T04:09:15.463Z,3.68
2019-05-12T04:10:15.665Z,3.69
2019-05-12T04:11:14.741Z,3.68
2019-05-12T04:12:14.834Z,3.62
2019-05-12T04:13:15.055Z,3.62
2019-05-12T04:14:14.811Z,3.66
2019-05-12T04:15:15.177Z,3.66
2019-05-12T04:16:16.437Z,3.62
2019-05-12T04:17:14.912Z,3.64
2019-05-12T04:18:15.979Z,3.63
2019-05-12T04:19:14.869Z,3.60
2019-05-12T04:20:15.156Z,3.65
2019-05-12T04:21:15.550Z,3.74
2019-05-12T04:22:15.341Z,3.72
2019-05-12T04:23:15.292Z,3.73
2019-05-12T04:24:14.456Z,3.75
2019-05-12T04:25:14.806Z,3.82
2019-05-12T04:26:17.079Z,3.87
2019-05-12T04:27:14.985Z,3.91
2019-05-12T04:28:15.020Z,3.97
2019-05-12T04:29:15.526Z,4.01
2019-05-12T04:30:14.707Z,4.01
2019-05-12T04:31:15.491Z,3.99
2019-05-12T04:32:14.533Z,3.99
2019-05-12T04:33:15.602Z,4.02
2019-05-12T04:34:18.543Z,4.08
2019-05-12T04:35:14.860Z,4.10
2019-05-12T04:36:14.785Z,4.08
2019-05-12T04:37:14.783Z,4.09
2019-05-12T04:38:14.918Z,4.04
2019-05-12T04:39:14.906Z,4.07
2019-05-12T04:40:14.732Z,4.15
2019-05-12T04:41:14.683Z,4.18
2019-05-12T04:42:14.858Z,4.17
2019-05-12T04:43:14.746Z,4.16
2019-05-12T04:44:15.185Z,4.19
2019-05-12T04:45:15.664Z,4.19
2019-05-12T04:46:14.692Z,4.23
2019-05-12T04:47:14.664Z,4.23
2019-05-12T04:48:15.687Z,4.24
2019-05-12T04:49:15.737Z,4.25
2019-05-12T04:50:15.645Z,4.29
2019-05-12T04:51:15.426Z,4.30
2019-05-12T04:52:15.571Z,4.37
2019-05-12T04:53:14.583Z,4.47
2019-05-12T04:54:15.254Z,4.55
2019-05-12T04:55:15.085Z,4.60
2019-05-12T04:56:19.161Z,4.66
2019-05-12T04:57:15.014Z,4.70
2019-05-12T04:58:15.740Z,4.67
2019-05-12T04:59:15.662Z,4.62
2019-05-12T05:00:15.715Z,4.56
2019-05-12T05:01:15.495Z,4.55
2019-05-12T05:02:15.315Z,4.56
2019-05-12T05:03:14.453Z,4.53
2019-05-12T05:04:15.497Z,4.51
2019-05-12T05:05:14.639Z,4.51
2019-05-12T05:06:14.820Z,4.50
2019-05-12T05:07:15.074Z,4.51
2019-05-12T05:08:16.857Z,4.51
2019-05-12T05:09:14.531Z,4.54
2019-05-12T05:10:14.653Z,4.57
2019-05-12T05:11:14.733Z,4.58
2019-05-12T05:12:14.103Z,4.56
2019-05-12T05:13:14.924Z,4.55
2019-05-12T05:14:14.435Z,4.56
2019-05-12T05:15:14.824Z,4.56
2019-05-12T05:16:14.496Z,4.59
2019-05-12T05:17:15.083Z,4.63
2019-05-12T05:18:13.926Z,4.67
2019-05-12T05:19:14.015Z,4.70
2019-05-12T05:20:13.907Z,4.75
2019-05-12T05:21:14.105Z,4.83
2019-05-12T05:22:13.911Z,4.90
2019-05-12T05:23:14.360Z,4.94
2019-05-12T05:24:14.358Z,4.98
2019-05-12T05:25:14.556Z,5.01
2019-05-12T05:26:22.146Z,5.04
2019-05-12T05:27:13.904Z,5.07
2019-05-12T05:28:14.709Z,5.09
2019-05-12T05:29:13.902Z,5.15
2019-05-12T05:30:14.034Z,5.20
2019-05-12T05:31:14.088Z,5.25
2019-05-12T05:32:14.121Z,5.28
2019-05-12T05:33:14.685Z,5.30
2019-05-12T05:34:14.830Z,5.32
2019-05-12T05:35:13.898Z,5.32
2019-05-12T05:36:19.463Z,5.36
2019-05-12T05:37:14.521Z,5.38
2019-05-12T05:38:19.088Z,5.42
2019-05-12T05:39:14.137Z,5.45
2019-05-12T05:40:14.303Z,5.47
2019-05-12T05:41:13.895Z,5.47
2019-05-12T05:42:13.893Z,5.48
2019-05-12T05:43:18.321Z,5.47
2019-05-12T05:44:14.044Z,5.47
2019-05-12T05:45:19.586Z,5.48
2019-05-12T05:46:13.972Z,5.48
2019-05-12T05:47:13.980Z,5.48
2019-05-12T05:48:13.902Z,5.48
2019-05-12T05:49:13.892Z,5.49
2019-05-12T05:50:18.291Z,5.48
2019-05-12T05:51:13.897Z,5.48
2019-05-12T05:52:13.899Z,5.47
2019-05-12T05:53:17.428Z,5.47
2019-05-12T05:54:13.904Z,5.48
2019-05-12T05:55:15.724Z,5.52
2019-05-12T05:56:15.425Z,5.55
2019-05-12T05:57:14.319Z,5.59
2019-05-12T05:58:15.427Z,5.61
2019-05-12T05:59:15.030Z,5.63
2019-05-12T06:00:22.620Z,5.64
2019-05-12T06:01:13.962Z,5.62
2019-05-12T06:02:13.963Z,5.62
2019-05-12T06:03:22.697Z,5.65
2019-05-12T06:04:14.141Z,5.69
2019-05-12T06:05:14.549Z,5.74
2019-05-12T06:06:15.384Z,5.81
2019-05-12T06:07:14.441Z,5.87
2019-05-12T06:08:16.210Z,5.87
2019-05-12T06:09:14.197Z,5.89
2019-05-12T06:10:14.476Z,5.91
2019-05-12T06:11:23.032Z,5.92
2019-05-12T06:12:13.878Z,5.90
2019-05-12T06:13:14.391Z,5.87
2019-05-12T06:14:16.163Z,5.84
2019-05-12T06:15:13.875Z,5.84
2019-05-12T06:16:20.344Z,5.86
2019-05-12T06:17:14.573Z,5.87
2019-05-12T06:18:13.876Z,5.88
2019-05-12T06:19:14.162Z,5.90
2019-05-12T06:20:13.872Z,5.97
2019-05-12T06:21:13.892Z,6.02
2019-05-12T06:22:18.092Z,6.07
2019-05-12T06:23:14.763Z,6.10
2019-05-12T06:24:19.641Z,6.12
2019-05-12T06:25:16.235Z,6.16
2019-05-12T06:26:14.199Z,6.19
2019-05-12T06:27:16.316Z,6.21
2019-05-12T06:28:14.538Z,6.20
2019-05-12T06:29:20.326Z,6.18
2019-05-12T06:30:14.765Z,6.21
2019-05-12T06:31:14.004Z,6.25
2019-05-12T06:32:14.211Z,6.31
2019-05-12T06:33:14.491Z,6.35
2019-05-12T06:34:20.374Z,6.40
2019-05-12T06:35:15.117Z,6.43
2019-05-12T06:36:22.164Z,6.44
2019-05-12T06:37:16.855Z,6.46
2019-05-12T06:38:13.861Z,6.47
2019-05-12T06:39:18.654Z,6.45
2019-05-12T06:40:14.221Z,6.46
2019-05-12T06:41:20.680Z,6.43
2019-05-12T06:42:16.791Z,6.40
2019-05-12T06:43:14.115Z,6.41
2019-05-12T06:44:19.024Z,6.43
2019-05-12T06:45:14.226Z,6.46
2019-05-12T06:46:20.525Z,6.46
2019-05-12T06:47:14.336Z,6.46
2019-05-12T06:48:14.170Z,6.43
2019-05-12T06:49:17.547Z,6.36
2019-05-12T06:50:14.601Z,6.29
2019-05-12T06:51:19.185Z,6.27
2019-05-12T06:52:14.391Z,6.26
2019-05-12T06:53:14.092Z,6.25
2019-05-12T06:54:15.130Z,6.24
2019-05-12T06:55:14.615Z,6.26
2019-05-12T06:56:15.343Z,6.31
2019-05-12T06:57:22.237Z,6.39
2019-05-12T06:58:14.136Z,6.47
2019-05-12T06:59:14.740Z,6.49
2019-05-12T07:00:14.567Z,6.45
2019-05-12T07:01:19.156Z,6.43
2019-05-12T07:02:13.929Z,6.45
2019-05-12T07:03:14.448Z,6.52
2019-05-12T07:04:14.192Z,6.56
2019-05-12T07:05:14.637Z,6.57
2019-05-12T07:06:17.562Z,6.56
2019-05-12T07:07:14.289Z,6.56
2019-05-12T07:08:17.905Z,6.60
2019-05-12T07:09:16.295Z,6.63
2019-05-12T07:10:35.189Z,6.66
2019-05-12T07:11:14.411Z,6.68
2019-05-12T07:12:13.936Z,6.74
2019-05-12T07:13:14.758Z,6.78
2019-05-12T07:14:22.539Z,6.83
2019-05-12T07:15:14.397Z,6.83
2019-05-12T07:16:16.676Z,6.77
2019-05-12T07:17:14.512Z,6.68
2019-05-12T07:18:17.204Z,6.62
2019-05-12T07:19:20.559Z,6.58
2019-05-12T07:20:14.767Z,6.58
2019-05-12T07:21:17.860Z,6.58
2019-05-12T07:22:21.919Z,6.59
2019-05-12T07:23:14.357Z,6.60
2019-05-12T07:24:14.260Z,6.66
2019-05-12T07:25:13.837Z,6.75
2019-05-12T07:26:19.241Z,6.76
2019-05-12T07:27:14.137Z,6.79
2019-05-12T07:28:14.483Z,6.86
2019-05-12T07:29:13.830Z,6.95
2019-05-12T07:30:13.845Z,7.06
2019-05-12T07:31:14.266Z,7.07
2019-05-12T07:32:19.795Z,7.08
2019-05-12T07:33:14.610Z,7.13
2019-05-12T07:34:13.835Z,7.17
2019-05-12T07:35:14.736Z,7.21
2019-05-12T07:36:13.949Z,7.25
2019-05-12T07:37:15.297Z,7.29
2019-05-12T07:38:20.811Z,7.33
2019-05-12T07:39:13.837Z,7.35
2019-05-12T07:40:13.894Z,7.27
2019-05-12T07:41:14.434Z,7.27
2019-05-12T07:42:13.834Z,7.34
2019-05-12T07:43:16.261Z,7.38
2019-05-12T07:44:14.293Z,7.41
2019-05-12T07:45:20.546Z,7.40
2019-05-12T07:46:13.841Z,7.45
2019-05-12T07:47:13.877Z,7.46
2019-05-12T07:48:13.957Z,7.41
2019-05-12T07:49:14.186Z,7.38
2019-05-12T07:50:16.277Z,7.37
2019-05-12T07:51:13.913Z,7.41
2019-05-12T07:52:13.900Z,7.52
2019-05-12T07:53:14.530Z,7.50
2019-05-12T07:54:14.256Z,7.47
2019-05-12T07:55:14.770Z,7.46
2019-05-12T07:56:14.449Z,7.42
2019-05-12T07:57:17.442Z,7.41
2019-05-12T07:58:18.670Z,8.03
2019-05-12T07:59:13.820Z,8.25
2019-05-12T08:00:21.321Z,8.39
2019-05-12T08:01:14.532Z,8.12
2019-05-12T08:02:14.295Z,7.87
2019-05-12T08:03:21.015Z,7.71
2019-05-12T08:04:13.813Z,7.52
2019-05-12T08:05:19.565Z,7.37
2019-05-12T08:06:14.258Z,7.25
2019-05-12T08:07:14.565Z,7.15
2019-05-12T08:08:14.501Z,7.11
2019-05-12T08:09:13.808Z,7.09
2019-05-12T08:10:18.417Z,7.11
2019-05-12T08:11:14.938Z,7.17
2019-05-12T08:12:16.445Z,7.23
2019-05-12T08:13:14.833Z,7.32
2019-05-12T08:14:24.796Z,7.36
2019-05-12T08:15:14.201Z,7.56
2019-05-12T08:16:14.351Z,7.79
2019-05-12T08:17:19.239Z,7.81
2019-05-12T08:18:14.094Z,7.91
2019-05-12T08:19:23.293Z,8.08
2019-05-12T08:20:13.800Z,8.23
2019-05-12T08:21:14.127Z,8.39
2019-05-12T08:22:18.700Z,8.60
2019-05-12T08:23:14.252Z,8.87
2019-05-12T08:24:14.332Z,9.24
2019-05-12T08:25:18.630Z,9.50
2019-05-12T08:26:18.661Z,9.62
2019-05-12T08:27:14.392Z,9.78
2019-05-12T08:28:18.163Z,9.80
2019-05-12T08:29:16.882Z,9.85
2019-05-12T08:30:14.018Z,9.83
2019-05-12T08:31:14.217Z,9.80
2019-05-12T08:32:16.038Z,9.79
2019-05-12T08:33:14.667Z,9.87
2019-05-12T08:34:13.801Z,9.89
2019-05-12T08:35:14.127Z,9.93
2019-05-12T08:36:16.343Z,9.96
2019-05-12T08:37:14.012Z,10.13
2019-05-12T08:38:14.567Z,10.30
2019-05-12T08:39:21.352Z,10.38
2019-05-12T08:40:15.574Z,10.58
2019-05-12T08:41:14.572Z,10.77
2019-05-12T08:42:14.558Z,10.81
2019-05-12T08:43:14.905Z,10.91
2019-05-12T08:44:13.790Z,11.09
2019-05-12T08:45:23.435Z,11.22
2019-05-12T08:46:15.615Z,11.28
2019-05-12T08:47:15.160Z,11.27
2019-05-12T08:48:21.442Z,11.06
2019-05-12T08:49:14.338Z,10.73
2019-05-12T08:50:13.894Z,10.57
2019-05-12T08:51:16.994Z,10.35
2019-05-12T08:52:14.223Z,10.22
2019-05-12T08:53:20.539Z,10.08
2019-05-12T08:54:14.188Z,9.89
2019-05-12T08:55:16.628Z,9.82
2019-05-12T08:56:19.173Z,9.85
2019-05-12T08:57:14.369Z,9.91
2019-05-12T08:58:29.684Z,9.98
2019-05-12T08:59:15.580Z,9.84
2019-05-12T09:00:13.776Z,9.89
2019-05-12T09:01:13.946Z,9.91
2019-05-12T09:02:14.132Z,9.97
2019-05-12T09:03:14.347Z,10.03
2019-05-12T09:04:17.981Z,9.96
2019-05-12T09:05:14.397Z,9.91
2019-05-12T09:06:17.938Z,9.94
2019-05-12T09:07:13.956Z,9.92
2019-05-12T09:08:14.004Z,9.88
2019-05-12T09:09:14.032Z,9.94
2019-05-12T09:10:14.293Z,9.91
2019-05-12T09:11:14.029Z,9.88
2019-05-12T09:12:14.015Z,9.91
2019-05-12T09:13:14.364Z,10.00
2019-05-12T09:14:14.603Z,10.03
2019-05-12T09:15:13.783Z,10.09
2019-05-12T09:16:13.975Z,10.25
2019-05-12T09:17:13.900Z,10.28
2019-05-12T09:18:14.515Z,10.28
2019-05-12T09:19:16.656Z,10.10
2019-05-12T09:20:13.951Z,9.95
2019-05-12T09:21:14.212Z,9.85
2019-05-12T09:22:18.455Z,9.83
2019-05-12T09:23:13.820Z,9.91
2019-05-12T09:24:21.713Z,10.01
2019-05-12T09:25:14.392Z,9.94
2019-05-12T09:26:18.410Z,9.81
2019-05-12T09:27:13.759Z,9.68
2019-05-12T09:28:13.976Z,9.61
2019-05-12T09:29:14.008Z,9.49
2019-05-12T09:30:14.134Z,9.37
2019-05-12T09:31:14.208Z,9.39
2019-05-12T09:32:14.569Z,9.45
2019-05-12T09:33:14.161Z,9.54
2019-05-12T09:34:16.426Z,9.67
2019-05-12T09:35:14.428Z,9.78
2019-05-12T09:36:19.912Z,9.92
2019-05-12T09:37:14.306Z,9.99
2019-05-12T09:38:21.225Z,10.09
2019-05-12T09:39:14.255Z,10.09
2019-05-12T09:40:14.877Z,10.25
2019-05-12T09:41:14.113Z,10.56
2019-05-12T09:42:14.244Z,10.81
2019-05-12T09:43:13.891Z,10.76
2019-05-12T09:44:13.810Z,10.73
2019-05-12T09:45:13.945Z,10.78
2019-05-12T09:46:14.387Z,10.86
2019-05-12T09:48:14.266Z,10.98
2019-05-12T09:49:14.243Z,11.06
2019-05-12T09:50:16.049Z,11.06
2019-05-12T09:51:16.699Z,11.05
2019-05-12T09:52:21.929Z,11.05
2019-05-12T09:53:14.467Z,11.09
2019-05-12T09:54:14.004Z,11.29
2019-05-12T09:55:14.783Z,11.49
2019-05-12T09:56:13.886Z,11.69
2019-05-12T09:57:13.775Z,11.81
2019-05-12T09:58:22.787Z,11.75
2019-05-12T09:59:19.087Z,11.79
2019-05-12T10:00:13.876Z,11.90
2019-05-12T10:01:14.118Z,11.95
2019-05-12T10:02:18.523Z,11.97
2019-05-12T10:03:14.038Z,11.96
2019-05-12T10:04:16.315Z,11.80
2019-05-12T10:05:14.387Z,11.54
2019-05-12T10:06:17.934Z,11.25
2019-05-12T10:07:14.149Z,11.02
2019-05-12T10:08:14.063Z,10.98
2019-05-12T10:09:15.623Z,10.97
2019-05-12T10:10:14.235Z,10.76
2019-05-12T10:11:16.515Z,10.55
2019-05-12T10:12:13.736Z,10.44
2019-05-12T10:13:13.914Z,10.39
2019-05-12T10:14:14.096Z,10.44
2019-05-12T10:15:18.577Z,10.60
2019-05-12T10:16:13.735Z,10.72
2019-05-12T10:17:14.201Z,10.78
2019-05-12T10:18:14.344Z,10.81
2019-05-12T10:19:14.428Z,11.00
2019-05-12T10:20:13.852Z,11.25
2019-05-12T10:21:15.387Z,11.46
2019-05-12T10:22:13.734Z,11.52
2019-05-12T10:23:18.645Z,11.39
2019-05-12T10:24:13.730Z,11.13
2019-05-12T10:25:14.457Z,10.84
2019-05-12T10:26:14.798Z,10.68
2019-05-12T10:27:13.910Z,10.67
2019-05-12T10:28:16.093Z,10.74
2019-05-12T10:29:20.174Z,11.00
2019-05-12T10:30:17.380Z,11.18
2019-05-12T10:31:13.987Z,11.32
2019-05-12T10:32:13.723Z,11.34
2019-05-12T10:33:13.983Z,11.37
2019-05-12T10:34:14.096Z,11.40
2019-05-12T10:35:20.874Z,11.45
2019-05-12T10:36:13.721Z,11.64
2019-05-12T10:37:13.720Z,11.70
2019-05-12T10:38:13.947Z,11.62
2019-05-12T10:39:13.728Z,11.57
2019-05-12T10:40:13.941Z,11.56
2019-05-12T10:41:13.720Z,11.53
2019-05-12T10:42:13.797Z,11.51
2019-05-12T10:43:13.731Z,11.48
2019-05-12T10:44:13.966Z,11.46
2019-05-12T10:45:16.973Z,11.39
2019-05-12T10:46:18.452Z,11.36
2019-05-12T10:47:13.723Z,11.32
2019-05-12T10:48:14.232Z,11.43
2019-05-12T10:49:13.973Z,11.56
2019-05-12T10:50:14.457Z,11.63
2019-05-12T10:51:13.712Z,11.82
2019-05-12T10:52:13.967Z,11.91
2019-05-12T10:53:15.602Z,11.86
2019-05-12T10:54:15.714Z,11.86
2019-05-12T10:55:13.724Z,11.90
2019-05-12T10:56:13.714Z,12.01
2019-05-12T10:57:14.198Z,12.19
2019-05-12T10:58:14.496Z,12.35
2019-05-12T10:59:27.979Z,12.36
2019-05-12T11:00:14.271Z,12.36
2019-05-12T11:01:13.707Z,12.56
2019-05-12T11:02:13.993Z,12.69
2019-05-12T11:03:15.514Z,12.75
2019-05-12T11:04:14.329Z,12.83
2019-05-12T11:05:21.291Z,12.93
2019-05-12T11:06:13.704Z,13.05
2019-05-12T11:07:13.703Z,13.21
2019-05-12T11:08:14.357Z,13.34
2019-05-12T11:09:14.050Z,13.40
2019-05-12T11:10:19.629Z,13.32
2019-05-12T11:11:13.753Z,13.15
2019-05-12T11:12:13.879Z,13.07
2019-05-12T11:13:14.498Z,13.04
2019-05-12T11:14:14.225Z,12.85
2019-05-12T11:15:13.789Z,12.62
2019-05-12T11:16:16.213Z,12.38
2019-05-12T11:17:13.890Z,12.12
2019-05-12T11:18:13.697Z,11.84
2019-05-12T11:19:13.877Z,11.68
2019-05-12T11:20:14.172Z,11.74
2019-05-12T11:21:13.695Z,11.85
2019-05-12T11:22:13.957Z,12.04
2019-05-12T11:23:13.834Z,12.25
2019-05-12T11:24:13.899Z,12.39
2019-05-12T11:25:14.474Z,12.50
2019-05-12T11:26:14.203Z,12.52
2019-05-12T11:27:13.691Z,12.47
2019-05-12T11:28:14.115Z,12.47
2019-05-12T11:29:14.122Z,12.57
2019-05-12T11:30:13.689Z,12.62
2019-05-12T11:31:13.697Z,12.66
2019-05-12T11:32:14.934Z,12.65
2019-05-12T11:33:13.693Z,12.55
2019-05-12T11:34:13.698Z,12.47
2019-05-12T11:35:14.231Z,12.47
2019-05-12T11:36:13.688Z,12.58
2019-05-12T11:37:13.944Z,12.71
2019-05-12T11:38:13.695Z,12.86
2019-05-12T11:39:14.266Z,12.96
2019-05-12T11:40:13.683Z,13.06
2019-05-12T11:41:16.212Z,13.17
2019-05-12T11:42:13.767Z,13.28
2019-05-12T11:43:14.291Z,13.38
2019-05-12T11:44:13.682Z,13.49
2019-05-12T11:45:13.697Z,13.53
2019-05-12T11:46:13.688Z,13.43
2019-05-12T11:47:14.799Z,13.31
2019-05-12T11:48:14.299Z,13.17
2019-05-12T11:49:13.889Z,13.21
2019-05-12T11:50:13.691Z,13.14
2019-05-12T11:51:14.395Z,13.14
2019-05-12T11:52:18.450Z,13.27
2019-05-12T11:53:13.898Z,13.58
2019-05-12T11:54:13.904Z,13.80
2019-05-12T11:55:13.678Z,13.86
2019-05-12T11:56:13.936Z,13.89
2019-05-12T11:57:13.675Z,13.90
2019-05-12T11:58:13.673Z,13.88
2019-05-12T11:59:13.911Z,13.73
2019-05-12T12:00:13.840Z,13.71
2019-05-12T12:01:13.681Z,13.83
2019-05-12T12:02:13.672Z,13.87
2019-05-12T12:03:18.006Z,13.84
2019-05-12T12:04:14.338Z,13.88
2019-05-12T12:05:13.946Z,13.79
2019-05-12T12:06:13.678Z,13.63
2019-05-12T12:07:13.670Z,13.49
2019-05-12T12:08:14.430Z,13.49
2019-05-12T12:09:15.230Z,13.60
2019-05-12T12:10:14.200Z,13.50
2019-05-12T12:11:18.897Z,13.45
2019-05-12T12:12:13.667Z,13.54
2019-05-12T12:13:14.260Z,13.70
2019-05-12T12:14:14.333Z,13.78
2019-05-12T12:15:13.859Z,13.89
2019-05-12T12:16:14.157Z,14.06
2019-05-12T12:17:13.706Z,14.06
2019-05-12T12:18:15.415Z,14.09
2019-05-12T12:19:13.663Z,14.20
2019-05-12T12:20:22.163Z,14.22
2019-05-12T12:21:14.209Z,14.23
2019-05-12T12:22:14.642Z,14.36
2019-05-12T12:23:14.117Z,14.48
2019-05-12T12:24:13.659Z,14.48
2019-05-12T12:25:15.635Z,14.27
2019-05-12T12:26:13.659Z,14.06
2019-05-12T12:27:14.251Z,14.07
2019-05-12T12:28:13.784Z,14.15
2019-05-12T12:29:13.776Z,14.22
2019-05-12T12:30:19.292Z,14.39
2019-05-12T12:31:13.654Z,14.57
2019-05-12T12:32:18.443Z,14.89
2019-05-12T12:33:14.368Z,15.00
2019-05-12T12:34:15.492Z,15.11
2019-05-12T12:35:15.058Z,15.30
2019-05-12T12:36:14.513Z,15.52
2019-05-12T12:37:13.813Z,15.55
2019-05-12T12:38:14.205Z,15.45
2019-05-12T12:39:13.655Z,15.03
2019-05-12T12:40:14.370Z,14.68
2019-05-12T12:41:13.647Z,14.61
2019-05-12T12:42:14.070Z,14.75
2019-05-12T12:43:13.927Z,14.90
2019-05-12T12:44:13.709Z,15.04
2019-05-12T12:45:14.137Z,15.30
2019-05-12T12:46:17.712Z,15.58
2019-05-12T12:47:14.015Z,15.72
2019-05-12T12:48:13.838Z,15.73
2019-05-12T12:49:14.039Z,15.75
2019-05-12T12:50:13.643Z,15.80
2019-05-12T12:51:17.380Z,15.68
2019-05-12T12:52:13.833Z,15.85
2019-05-12T12:53:13.650Z,15.98
2019-05-12T12:54:13.642Z,15.90
2019-05-12T12:55:14.055Z,15.78
2019-05-12T12:56:16.126Z,15.67
2019-05-12T12:57:13.801Z,15.55
2019-05-12T12:58:14.143Z,15.50
2019-05-12T12:59:14.653Z,15.40
2019-05-12T13:00:17.780Z,15.37
2019-05-12T13:01:22.126Z,15.42
2019-05-12T13:02:14.187Z,15.56
2019-05-12T13:03:14.418Z,15.80
2019-05-12T13:04:13.636Z,15.72
2019-05-12T13:05:13.709Z,15.51
2019-05-12T13:06:17.073Z,15.44
2019-05-12T13:07:13.821Z,15.44
2019-05-12T13:08:13.812Z,15.50
2019-05-12T13:09:22.411Z,15.79
2019-05-12T13:10:14.378Z,16.02
2019-05-12T13:11:14.776Z,16.14